createdAt,value
2018-12-14T00:00:20.724Z,-1.71
2018-12-14T00:02:49.945Z,-1.83
2018-12-14T00:05:19.184Z,-1.76
2018-12-14T00:07:48.269Z,-1.77
2018-12-14T00:10:17.454Z,-3.24
2018-12-14T00:12:46.579Z,-1.77
2018-12-14T00:15:15.981Z,-1.75
2018-12-14T00:17:45.107Z,-1.71
2018-12-14T00:20:14.354Z,-1.72
2018-12-14T00:22:43.747Z,-1.86
2018-12-14T00:25:13.136Z,-1.89
2018-12-14T00:32:35.197Z,-1.71
2018-12-14T00:35:04.988Z,-1.91
2018-12-14T00:37:34.144Z,-2.14
2018-12-14T00:40:03.750Z,-2.17
2018-12-14T00:42:33.158Z,-2.19
2018-12-14T00:45:02.262Z,-2.21
2018-12-14T00:47:31.442Z,-2.30
2018-12-14T00:50:00.574Z,-2.10
2018-12-14T00:52:29.734Z,-2.16
2018-12-14T00:54:59.071Z,-1.99
2018-12-14T00:57:31.647Z,-2.06
2018-12-14T01:00:00.861Z,-2.02
2018-12-14T01:02:30.109Z,-1.93
2018-12-14T01:04:59.454Z,-1.93
2018-12-14T01:07:30.862Z,-1.92
2018-12-14T01:09:59.988Z,-1.96
2018-12-14T01:12:29.290Z,-1.90
2018-12-14T01:14:58.545Z,-1.90
2018-12-14T01:17:27.690Z,-1.87
2018-12-14T01:19:56.862Z,-2.01
2018-12-14T01:22:25.994Z,-2.18
2018-12-14T01:24:55.135Z,-2.15
2018-12-14T01:27:24.382Z,-2.10
2018-12-14T01:29:53.593Z,-2.16
2018-12-14T01:32:22.833Z,-2.16
2018-12-14T01:34:51.965Z,-2.31
2018-12-14T01:37:21.192Z,-2.18
2018-12-14T01:39:51.870Z,-2.32
2018-12-14T01:42:21.232Z,-2.20
2018-12-14T01:44:50.489Z,-2.22
2018-12-14T01:47:19.797Z,-2.12
2018-12-14T01:49:48.953Z,-2.37
2018-12-14T01:52:18.395Z,-2.16
2018-12-14T01:54:47.727Z,-2.20
2018-12-14T01:57:17.183Z,-2.19
2018-12-14T01:59:46.303Z,-2.26
2018-12-14T02:02:15.599Z,-2.19
2018-12-14T02:04:44.803Z,-2.42
2018-12-14T02:07:14.009Z,-2.24
2018-12-14T02:09:43.211Z,-2.25
2018-12-14T02:12:12.382Z,-2.17
2018-12-14T02:14:41.492Z,-2.20
2018-12-14T02:17:10.659Z,-2.20
2018-12-14T02:19:39.894Z,-2.16
2018-12-14T02:22:08.991Z,-2.23
2018-12-14T02:24:38.267Z,-2.18
2018-12-14T02:27:07.801Z,-2.19
2018-12-14T02:29:37.080Z,-2.23
2018-12-14T02:32:06.298Z,-2.28
2018-12-14T02:34:35.581Z,-2.30
2018-12-14T02:37:04.800Z,-2.35
2018-12-14T02:39:33.926Z,-2.11
2018-12-14T02:42:03.264Z,-2.01
2018-12-14T02:44:32.419Z,-2.03
2018-12-14T02:47:01.530Z,-2.04
2018-12-14T02:49:30.771Z,-2.10
2018-12-14T02:51:59.926Z,-2.12
2018-12-14T02:54:29.123Z,-2.07
2018-12-14T02:56:58.334Z,-2.24
2018-12-14T02:59:27.565Z,-2.35
2018-12-14T03:01:56.735Z,-2.39
2018-12-14T03:04:25.838Z,-2.48
2018-12-14T03:06:54.951Z,-2.42
2018-12-14T03:09:24.121Z,-2.27
2018-12-14T03:11:53.343Z,-2.37
2018-12-14T03:14:22.814Z,-2.40
2018-12-14T03:16:52.314Z,-2.16
2018-12-14T03:19:21.434Z,-2.13
2018-12-14T03:21:50.713Z,-2.15
2018-12-14T03:24:19.970Z,-2.11
2018-12-14T03:26:49.151Z,-2.14
2018-12-14T03:29:18.439Z,-2.13
2018-12-14T03:31:47.735Z,-2.18
2018-12-14T03:34:16.998Z,-2.15
2018-12-14T03:36:46.192Z,-2.09
2018-12-14T03:39:15.358Z,-2.17
2018-12-14T03:41:44.507Z,-2.21
2018-12-14T03:44:13.620Z,-2.15
2018-12-14T03:46:42.839Z,-2.18
2018-12-14T03:49:12.023Z,-2.24
2018-12-14T03:51:41.227Z,-2.14
2018-12-14T03:54:10.430Z,-2.17
2018-12-14T03:56:39.574Z,-2.15
2018-12-14T03:59:08.968Z,-2.13
2018-12-14T04:01:38.251Z,-2.13
2018-12-14T04:04:07.404Z,-2.14
2018-12-14T04:06:36.575Z,-2.10
2018-12-14T04:09:06.831Z,-2.18
2018-12-14T04:11:36.040Z,-2.15
2018-12-14T04:14:05.242Z,-2.19
2018-12-14T04:16:34.446Z,-2.31
2018-12-14T04:19:03.664Z,-2.35
2018-12-14T04:21:33.013Z,-2.29
2018-12-14T04:24:02.231Z,-2.27
2018-12-14T04:26:31.387Z,-2.49
2018-12-14T04:29:00.837Z,-2.39
2018-12-14T04:31:30.030Z,-2.42
2018-12-14T04:33:59.174Z,-2.38
2018-12-14T04:36:28.406Z,-2.37
2018-12-14T04:38:57.534Z,-2.50
2018-12-14T04:41:26.677Z,-2.42
2018-12-14T04:43:55.961Z,-2.28
2018-12-14T04:46:25.053Z,-2.43
2018-12-14T04:48:54.217Z,-2.25
2018-12-14T04:51:29.866Z,-2.41
2018-12-14T04:53:59.048Z,-2.51
2018-12-14T04:56:28.143Z,-2.40
2018-12-14T04:58:57.376Z,-2.44
2018-12-14T05:01:26.559Z,-2.40
2018-12-14T05:03:55.724Z,-2.39
2018-12-14T05:06:24.882Z,-2.44
2018-12-14T05:08:54.123Z,-2.41
2018-12-14T05:11:23.334Z,-2.44
2018-12-14T05:13:52.638Z,-2.39
2018-12-14T05:16:21.842Z,-2.42
2018-12-14T05:18:50.946Z,-2.37
2018-12-14T05:21:20.107Z,-2.15
2018-12-14T05:23:49.265Z,-2.19
2018-12-14T05:26:18.479Z,-2.14
2018-12-14T05:28:47.689Z,-2.22
2018-12-14T05:31:16.902Z,-2.30
2018-12-14T05:33:46.113Z,-2.21
2018-12-14T05:36:15.363Z,-2.17
2018-12-14T05:38:44.494Z,-2.21
2018-12-14T05:41:13.687Z,-2.20
2018-12-14T05:43:42.804Z,-2.05
2018-12-14T05:46:12.009Z,-2.01
2018-12-14T05:48:41.197Z,-2.04
2018-12-14T05:51:10.340Z,-1.95
2018-12-14T05:53:39.515Z,-1.88
2018-12-14T05:56:08.676Z,-2.01
2018-12-14T05:58:37.883Z,-2.03
2018-12-14T06:01:07.203Z,-2.26
2018-12-14T06:03:36.981Z,-2.18
2018-12-14T06:06:06.349Z,-2.22
2018-12-14T06:08:35.587Z,-2.19
2018-12-14T06:11:04.787Z,-2.22
2018-12-14T06:13:36.067Z,-2.35
2018-12-14T06:16:05.350Z,-2.29
2018-12-14T06:18:34.767Z,-2.14
2018-12-14T06:21:04.025Z,-2.16
2018-12-14T06:23:33.327Z,-2.17
2018-12-14T06:26:02.496Z,-2.07
2018-12-14T06:28:31.827Z,-2.17
2018-12-14T06:31:00.986Z,-2.13
2018-12-14T06:33:30.114Z,-2.14
2018-12-14T06:36:00.415Z,-2.18
2018-12-14T06:38:29.530Z,-2.15
2018-12-14T06:40:59.158Z,-2.09
2018-12-14T06:43:28.455Z,-2.12
2018-12-14T06:45:58.283Z,-1.99
2018-12-14T06:48:27.482Z,-2.00
2018-12-14T06:50:57.082Z,-1.94
2018-12-14T06:53:26.263Z,-1.97
2018-12-14T06:55:56.466Z,-1.96
2018-12-14T06:58:26.003Z,-1.97
2018-12-14T07:00:55.139Z,-1.95
2018-12-14T07:03:24.406Z,-2.00
2018-12-14T07:05:53.599Z,-2.03
2018-12-14T07:08:23.084Z,-1.99
2018-12-14T07:10:52.470Z,-1.98
2018-12-14T07:13:22.149Z,-1.91
2018-12-14T07:15:51.398Z,-2.04
2018-12-14T07:18:20.638Z,-2.17
2018-12-14T07:20:50.199Z,-2.01
2018-12-14T07:23:19.312Z,-1.96
2018-12-14T07:25:48.574Z,-2.01
2018-12-14T07:28:17.793Z,-2.10
2018-12-14T07:30:46.934Z,-1.94
2018-12-14T07:33:16.070Z,-2.12
2018-12-14T07:35:45.346Z,-1.97
2018-12-14T07:38:14.530Z,-2.01
2018-12-14T07:40:43.692Z,-2.05
2018-12-14T07:43:12.859Z,-2.06
2018-12-14T07:45:41.980Z,-2.05
2018-12-14T07:48:11.369Z,-2.08
2018-12-14T07:50:40.605Z,-2.14
2018-12-14T07:53:09.731Z,-2.04
2018-12-14T07:55:38.907Z,-2.07
2018-12-14T07:58:08.055Z,-2.16
2018-12-14T08:00:37.223Z,-2.13
2018-12-14T08:03:06.461Z,-2.14
2018-12-14T08:05:35.737Z,-2.01
2018-12-14T08:08:04.975Z,-1.92
2018-12-14T08:10:34.341Z,-1.97
2018-12-14T08:13:03.633Z,-2.05
2018-12-14T08:15:32.953Z,-1.91
2018-12-14T08:18:02.252Z,-1.81
2018-12-14T08:20:34.455Z,-1.90
2018-12-14T08:23:03.551Z,-1.91
2018-12-14T08:25:32.878Z,-1.88
2018-12-14T08:28:01.959Z,-1.88
2018-12-14T08:30:31.506Z,-1.89
2018-12-14T08:33:00.704Z,-2.01
2018-12-14T08:35:29.867Z,-2.14
2018-12-14T08:37:58.954Z,-1.91
2018-12-14T08:40:28.093Z,-1.99
2018-12-14T08:42:57.511Z,-2.09
2018-12-14T08:45:26.706Z,-2.13
2018-12-14T08:47:56.163Z,-2.05
2018-12-14T08:50:25.305Z,-1.93
2018-12-14T08:52:54.446Z,-2.00
2018-12-14T08:55:23.565Z,-1.96
2018-12-14T08:57:53.026Z,-1.91
2018-12-14T09:00:22.238Z,-1.90
2018-12-14T09:02:51.371Z,-1.94
2018-12-14T09:05:20.509Z,-1.94
2018-12-14T09:07:49.673Z,-1.89
2018-12-14T09:10:18.781Z,-1.94
2018-12-14T09:12:47.987Z,-1.81
2018-12-14T09:15:17.087Z,-1.97
2018-12-14T09:17:46.366Z,-2.00
2018-12-14T09:20:15.619Z,-1.99
2018-12-14T09:22:44.885Z,-1.96
2018-12-14T09:25:14.083Z,-2.09
2018-12-14T09:27:43.183Z,-1.86
2018-12-14T09:30:12.267Z,-1.88
2018-12-14T09:32:41.388Z,-1.87
2018-12-14T09:35:10.617Z,-1.81
2018-12-14T09:37:39.713Z,-1.79
2018-12-14T09:40:09.177Z,-1.83
2018-12-14T09:42:38.448Z,-1.77
2018-12-14T09:45:07.945Z,-1.84
2018-12-14T09:50:19.004Z,-1.90
2018-12-14T09:52:48.170Z,-1.76
2018-12-14T09:55:17.278Z,-1.78
2018-12-14T09:57:46.426Z,-1.91
2018-12-14T10:00:15.580Z,-1.94
2018-12-14T10:02:44.690Z,-1.87
2018-12-14T10:05:13.936Z,-2.02
2018-12-14T10:07:46.828Z,-1.82
2018-12-14T10:10:14.429Z,-1.95
2018-12-14T10:12:43.596Z,-1.91
2018-12-14T10:15:12.818Z,-1.98
2018-12-14T10:17:42.052Z,-2.08
2018-12-14T10:20:11.402Z,-1.99
2018-12-14T10:22:41.648Z,-1.95
2018-12-14T10:25:11.170Z,-2.00
2018-12-14T10:27:40.365Z,-1.77
2018-12-14T10:30:10.166Z,-1.66
2018-12-14T10:32:39.382Z,-1.66
2018-12-14T10:35:09.512Z,-1.68
2018-12-14T10:37:38.706Z,-1.66
2018-12-14T10:40:09.664Z,-1.55
2018-12-14T10:42:38.820Z,-1.63
2018-12-14T10:45:08.310Z,-1.64
2018-12-14T10:47:37.566Z,-1.77
2018-12-14T10:50:07.272Z,-1.63
2018-12-14T10:52:36.469Z,-1.72
2018-12-14T10:55:06.465Z,-1.66
2018-12-14T10:57:36.082Z,-1.62
2018-12-14T11:00:11.735Z,-1.59
2018-12-14T11:02:40.831Z,-1.65
2018-12-14T11:05:09.975Z,-1.70
2018-12-14T11:07:39.236Z,-1.80
2018-12-14T11:10:10.043Z,-1.66
2018-12-14T11:12:39.265Z,-1.64
2018-12-14T11:15:08.565Z,-1.74
2018-12-14T11:17:37.718Z,-1.81
2018-12-14T11:20:08.894Z,-1.73
2018-12-14T11:22:38.038Z,-1.75
2018-12-14T11:25:08.303Z,-1.68
2018-12-14T11:27:37.398Z,-1.64
2018-12-14T11:30:08.689Z,-1.57
2018-12-14T11:32:37.782Z,-1.59
2018-12-14T11:35:07.063Z,-1.58
2018-12-14T11:37:36.169Z,-1.75
2018-12-14T11:40:07.435Z,-1.69
2018-12-14T11:42:36.535Z,-1.76
2018-12-14T11:45:07.626Z,-1.61
2018-12-14T11:47:36.847Z,-1.63
2018-12-14T11:50:12.316Z,-1.60
2018-12-14T11:52:41.395Z,-1.58
2018-12-14T11:55:11.510Z,-1.69
2018-12-14T11:57:40.667Z,-1.80
2018-12-14T12:00:13.334Z,-1.65
2018-12-14T12:02:43.227Z,-1.65
2018-12-14T12:05:12.780Z,-1.72
2018-12-14T12:07:43.034Z,-1.88
2018-12-14T12:10:12.282Z,-1.86
2018-12-14T12:12:41.658Z,-1.93
2018-12-14T12:15:10.836Z,-2.05
2018-12-14T12:17:40.715Z,-1.80
2018-12-14T12:20:10.120Z,-1.78
2018-12-14T12:22:39.212Z,-1.67
2018-12-14T12:25:08.524Z,-1.65
2018-12-14T12:27:37.726Z,-1.71
2018-12-14T12:30:08.138Z,-1.68
2018-12-14T12:32:37.483Z,-1.78
2018-12-14T12:35:08.021Z,-1.57
2018-12-14T12:37:37.306Z,-1.58
2018-12-14T12:40:06.541Z,-1.58
2018-12-14T12:42:35.622Z,-1.56
2018-12-14T12:45:05.600Z,-1.55
2018-12-14T12:47:34.810Z,-1.43
2018-12-14T12:50:04.278Z,-1.55
2018-12-14T12:52:33.488Z,-1.51
2018-12-14T12:55:02.678Z,-1.55
2018-12-14T12:57:31.762Z,-1.52
2018-12-14T13:00:00.858Z,-1.62
2018-12-14T13:02:29.949Z,-1.68
2018-12-14T13:04:59.245Z,-1.49
2018-12-14T13:07:28.369Z,-1.64
2018-12-14T13:09:57.473Z,-1.60
2018-12-14T13:12:26.573Z,-1.55
2018-12-14T13:14:55.971Z,-1.61
2018-12-14T13:17:25.143Z,-1.56
2018-12-14T13:19:54.365Z,-1.53
2018-12-14T13:22:23.483Z,-1.59
2018-12-14T13:24:52.741Z,-1.66
2018-12-14T13:27:21.815Z,-1.64
2018-12-14T13:29:51.051Z,-1.68
2018-12-14T13:32:20.327Z,-1.68
2018-12-14T13:34:49.415Z,-1.70
2018-12-14T13:37:18.507Z,-1.71
2018-12-14T13:39:47.841Z,-1.63
2018-12-14T13:42:16.942Z,-1.74
2018-12-14T13:44:46.648Z,-1.72
2018-12-14T13:47:16.348Z,-1.65
2018-12-14T13:49:45.555Z,-1.71
2018-12-14T13:52:14.641Z,-1.65
2018-12-14T13:54:43.754Z,-1.76
2018-12-14T13:57:12.858Z,-1.79
2018-12-14T13:59:49.084Z,-1.80
2018-12-14T14:02:18.294Z,-1.74
2018-12-14T14:04:47.472Z,-1.76
2018-12-14T14:07:16.659Z,-1.72
2018-12-14T14:09:45.791Z,-1.78
2018-12-14T14:12:15.079Z,-1.82
2018-12-14T14:14:44.185Z,-1.78
2018-12-14T14:17:13.292Z,-1.87
2018-12-14T14:19:42.795Z,-1.92
2018-12-14T14:22:12.111Z,-1.90
2018-12-14T14:24:41.220Z,-1.91
2018-12-14T14:27:10.372Z,-1.86
2018-12-14T14:29:39.538Z,-1.92
2018-12-14T14:32:08.991Z,-1.93
2018-12-14T14:34:38.757Z,-1.95
2018-12-14T14:37:07.971Z,-1.99
2018-12-14T14:39:37.090Z,-1.98
2018-12-14T14:42:06.189Z,-1.92
2018-12-14T14:44:35.280Z,-1.94
2018-12-14T14:47:04.646Z,-1.84
2018-12-14T14:49:33.770Z,-1.85
2018-12-14T14:52:02.879Z,-1.90
2018-12-14T14:54:31.976Z,-1.83
2018-12-14T14:57:01.160Z,-1.84
2018-12-14T14:59:30.338Z,-1.84
2018-12-14T15:01:59.654Z,-1.78
2018-12-14T15:04:28.833Z,-1.83
2018-12-14T15:06:57.914Z,-1.87
2018-12-14T15:09:27.028Z,-1.89
2018-12-14T15:11:56.132Z,-1.88
2018-12-14T15:14:25.487Z,-1.90
2018-12-14T15:16:54.616Z,-1.92
2018-12-14T15:19:23.712Z,-1.93
2018-12-14T15:21:52.950Z,-1.94
2018-12-14T15:24:22.150Z,-1.97
2018-12-14T15:26:51.310Z,-1.94
2018-12-14T15:29:20.480Z,-1.94
2018-12-14T15:31:49.577Z,-1.93
2018-12-14T15:34:18.662Z,-1.98
2018-12-14T15:36:47.907Z,-1.93
2018-12-14T15:39:17.105Z,-1.88
2018-12-14T15:41:46.215Z,-1.90
2018-12-14T15:44:15.324Z,-1.96
2018-12-14T15:46:44.502Z,-1.93
2018-12-14T15:49:13.713Z,-1.88
2018-12-14T15:51:42.913Z,-2.00
2018-12-14T15:54:12.014Z,-1.89
2018-12-14T15:56:41.139Z,-1.98
2018-12-14T15:59:10.263Z,-2.06
2018-12-14T16:01:39.372Z,-2.08
2018-12-14T16:04:08.567Z,-2.05
2018-12-14T16:06:37.697Z,-2.00
2018-12-14T16:09:07.790Z,-2.18
2018-12-14T16:11:36.981Z,-1.90
2018-12-14T16:14:06.682Z,-1.92
2018-12-14T16:16:35.827Z,-1.89
2018-12-14T16:19:05.193Z,-1.94
2018-12-14T16:21:34.485Z,-2.03
2018-12-14T16:24:03.667Z,-1.94
2018-12-14T16:26:32.950Z,-1.94
2018-12-14T16:29:02.075Z,-1.92
2018-12-14T16:31:31.164Z,-1.94
2018-12-14T16:34:00.439Z,-1.93
2018-12-14T16:36:29.635Z,-1.97
2018-12-14T16:38:58.961Z,-1.95
2018-12-14T16:41:28.055Z,-2.02
2018-12-14T16:43:57.142Z,-2.06
2018-12-14T16:46:26.418Z,-2.03
2018-12-14T16:48:55.622Z,-2.08
2018-12-14T16:51:24.744Z,-2.22
2018-12-14T16:53:59.229Z,-2.12
2018-12-14T16:56:28.525Z,-2.03
2018-12-14T16:58:57.983Z,-2.13
2018-12-14T17:01:27.255Z,-2.02
2018-12-14T17:03:56.531Z,-1.94
2018-12-14T17:06:25.637Z,-1.99
2018-12-14T17:08:55.010Z,-2.07
2018-12-14T17:11:24.340Z,-2.09
2018-12-14T17:13:53.545Z,-1.95
2018-12-14T17:16:22.755Z,-1.97
2018-12-14T17:18:52.057Z,-2.10
2018-12-14T17:21:21.238Z,-1.99
2018-12-14T17:23:50.558Z,-2.03
2018-12-14T17:26:19.701Z,-1.91
2018-12-14T17:28:48.866Z,-2.01
2018-12-14T17:31:17.983Z,-1.89
2018-12-14T17:33:47.221Z,-1.98
2018-12-14T17:36:16.310Z,-2.06
2018-12-14T17:38:45.404Z,-2.15
2018-12-14T17:41:14.581Z,-2.06
2018-12-14T17:43:43.707Z,-1.96
2018-12-14T17:46:12.856Z,-2.05
2018-12-14T17:48:43.333Z,-1.92
2018-12-14T17:51:12.603Z,-1.88
2018-12-14T17:53:41.697Z,-1.85
2018-12-14T17:56:10.800Z,-1.86
2018-12-14T17:58:40.009Z,-1.86
2018-12-14T18:01:09.156Z,-1.98
2018-12-14T18:03:38.619Z,-1.95
2018-12-14T18:06:07.739Z,-1.92
2018-12-14T18:08:36.842Z,-1.84
2018-12-14T18:11:06.194Z,-1.88
2018-12-14T18:13:35.300Z,-1.91
2018-12-14T18:16:04.691Z,-2.07
2018-12-14T18:18:33.817Z,-2.08
2018-12-14T18:21:02.958Z,-2.14
2018-12-14T18:23:32.264Z,-2.07
2018-12-14T18:26:01.375Z,-2.22
2018-12-14T18:28:30.579Z,-2.15
2018-12-14T18:30:59.705Z,-2.13
2018-12-14T18:33:29.594Z,-2.17
2018-12-14T18:35:58.933Z,-2.19
2018-12-14T18:38:28.058Z,-2.18
2018-12-14T18:40:57.787Z,-2.09
2018-12-14T18:43:27.753Z,-2.05
2018-12-14T18:45:57.664Z,-2.09
2018-12-14T18:48:28.035Z,-2.00
2018-12-14T18:50:57.309Z,-2.12
2018-12-14T18:53:26.585Z,-2.06
2018-12-14T18:55:55.740Z,-2.14
2018-12-14T18:58:24.841Z,-2.16
2018-12-14T19:00:54.201Z,-2.19
2018-12-14T19:03:23.435Z,-2.15
2018-12-14T19:05:52.618Z,-2.05
2018-12-14T19:08:21.830Z,-2.09
2018-12-14T19:10:50.966Z,-2.07
2018-12-14T19:13:20.067Z,-2.26
2018-12-14T19:15:49.188Z,-2.10
2018-12-14T19:18:18.411Z,-2.10
2018-12-14T19:20:47.511Z,-2.08
2018-12-14T19:23:19.664Z,-2.08
2018-12-14T19:25:47.751Z,-1.99
2018-12-14T19:28:17.393Z,-2.00
2018-12-14T19:30:46.604Z,-1.94
2018-12-14T19:33:16.020Z,-1.93
2018-12-14T19:35:45.142Z,-1.99
2018-12-14T19:38:14.544Z,-2.05
2018-12-14T19:40:43.739Z,-2.21
2018-12-14T19:43:13.000Z,-2.32
2018-12-14T19:45:42.297Z,-2.22
2018-12-14T19:48:11.510Z,-2.23
2018-12-14T19:50:40.622Z,-2.48
2018-12-14T19:53:09.786Z,-2.26
2018-12-14T19:55:38.949Z,-2.36
2018-12-14T19:58:08.143Z,-2.19
2018-12-14T20:00:37.298Z,-2.10
2018-12-14T20:03:06.422Z,-2.17
2018-12-14T20:05:35.673Z,-2.18
2018-12-14T20:08:04.962Z,-2.15
2018-12-14T20:10:34.234Z,-2.10
2018-12-14T20:13:03.386Z,-2.07
2018-12-14T20:18:07.453Z,-2.00
2018-12-14T20:20:36.638Z,-2.04
2018-12-14T20:23:05.830Z,-2.06
2018-12-14T20:25:35.009Z,-2.02
2018-12-14T20:28:04.207Z,-2.06
2018-12-14T20:30:33.314Z,-1.97
2018-12-14T20:33:02.586Z,-2.02
2018-12-14T20:35:31.924Z,-2.00
2018-12-14T20:38:01.024Z,-2.00
2018-12-14T20:40:30.428Z,-2.03
2018-12-14T20:42:59.535Z,-2.14
2018-12-14T20:45:28.645Z,-2.13
2018-12-14T20:47:57.797Z,-2.13
2018-12-14T20:50:28.101Z,-2.06
2018-12-14T20:52:59.126Z,-2.16
2018-12-14T20:55:28.639Z,-2.16
2018-12-14T20:57:57.751Z,-2.18
2018-12-14T21:00:26.977Z,-2.08
2018-12-14T21:02:56.080Z,-2.16
2018-12-14T21:05:25.177Z,-2.21
2018-12-14T21:07:54.363Z,-2.12
2018-12-14T21:10:23.485Z,-2.14
2018-12-14T21:12:52.701Z,-1.98
2018-12-14T21:15:21.937Z,-2.05
2018-12-14T21:17:51.188Z,-2.04
2018-12-14T21:20:20.397Z,-2.08
2018-12-14T21:22:49.563Z,-2.17
2018-12-14T21:25:18.669Z,-2.03
2018-12-14T21:27:47.783Z,-2.04
2018-12-14T21:30:16.932Z,-2.03
2018-12-14T21:32:46.062Z,-2.14
2018-12-14T21:35:15.282Z,-2.11
2018-12-14T21:37:44.427Z,-1.95
2018-12-14T21:40:13.614Z,-1.96
2018-12-14T21:42:42.925Z,-2.13
2018-12-14T21:45:12.354Z,-2.00
2018-12-14T21:47:41.451Z,-1.96
2018-12-14T21:50:10.685Z,-2.09
2018-12-14T21:52:39.874Z,-2.04
2018-12-14T21:55:09.502Z,-1.94
2018-12-14T21:57:39.491Z,-2.01
2018-12-14T22:00:11.228Z,-2.04
2018-12-14T22:02:40.559Z,-1.96
2018-12-14T22:05:09.930Z,-2.01
2018-12-14T22:07:39.400Z,-2.06
2018-12-14T22:10:09.507Z,-1.96
2018-12-14T22:12:38.646Z,-1.98
2018-12-14T22:15:08.011Z,-1.92
2018-12-14T22:17:37.179Z,-2.08
2018-12-14T22:20:06.478Z,-2.04
2018-12-14T22:22:35.663Z,-2.03
2018-12-14T22:25:04.978Z,-2.00
2018-12-14T22:30:09.618Z,-2.00
2018-12-14T22:32:38.736Z,-1.99
2018-12-14T22:35:07.949Z,-2.12
2018-12-14T22:37:37.119Z,-2.05
2018-12-14T22:40:07.526Z,-2.07
2018-12-14T22:42:36.701Z,-2.08
2018-12-14T22:45:07.077Z,-2.07
2018-12-14T22:47:36.176Z,-2.08
2018-12-14T22:50:05.961Z,-2.10
2018-12-14T22:52:35.160Z,-2.05
2018-12-14T22:55:04.864Z,-2.05
2018-12-14T22:57:34.219Z,-2.17
2018-12-14T23:00:04.864Z,-2.12
2018-12-14T23:02:36.332Z,-2.14
2018-12-14T23:05:05.720Z,-2.10
2018-12-14T23:07:36.550Z,-2.17
2018-12-14T23:10:06.518Z,-2.15
2018-12-14T23:12:35.595Z,-2.18
2018-12-14T23:15:05.234Z,-2.09
2018-12-14T23:17:34.477Z,-1.96
2018-12-14T23:20:04.132Z,-2.05
2018-12-14T23:22:33.223Z,-2.13
2018-12-14T23:25:02.438Z,-2.10
2018-12-14T23:27:31.706Z,-2.07
2018-12-14T23:30:00.891Z,-2.17
2018-12-14T23:32:30.110Z,-2.19
2018-12-14T23:34:59.222Z,-2.09
2018-12-14T23:37:28.325Z,-1.99
2018-12-14T23:39:57.415Z,-2.08
2018-12-14T23:42:26.654Z,-2.05
2018-12-14T23:44:55.756Z,-2.14
2018-12-14T23:47:24.854Z,-2.04
2018-12-14T23:49:53.942Z,-2.24
2018-12-14T23:52:23.130Z,-2.21
2018-12-14T23:54:52.258Z,-2.27
2018-12-14T23:57:21.471Z,-2.32
2018-12-14T23:59:50.659Z,-2.24
